Terminal Aerodrome Forecast
Issued by NWS Upton, NY

Home | Current Version | Previous Version | Text Only | Print | Product List | Glossary On
Versions: 1 2 3 4 5 6 7 8 9 10 11 12 13 14 15 16 17 18 19 20 21 22 23 24 25 26 27 28 29
000
FTUS41 KOKX 220700 AAB
TAFEWR
TAF AMD
KEWR 220702Z 2207/2312 01007KT P6SM SCT015 BKN020 OVC035
      TEMPO 2207/2208 BKN015 OVC025
     FM220800 02006KT P6SM BKN015 OVC025
     FM221200 04006KT P6SM BKN015 OVC025
     FM221600 04007KT 6SM -RA BKN010 OVC020
     FM222000 05007KT 6SM -RA OVC008
     FM230600 05007KT 3SM -RA BR OVC004=

USA.gov is the U.S. government's official web portal to all federal, state and local government web resources and services.